Barrett Parkway, Georgia
Current Conditions -  °F | °C
As of 9:47 AM on Thursday 30 Oct 2014 (Local Time) from KRYY Reporting Station
Clear Clear  
Wind Chill: 50°   Ceiling: Unl
Heat Index: 50°   Visibility: 10mi
Dew Point: 43°   Wind: 5mph
Humidity: 76%   Direction: 340°NNW
Pressure: 30.12"   Gusts: NA
Location:  34.0374°N, 84.5922°W
Report Text: KRYY 301347Z 34004KT 10SM SKC 10/06 A3012
Loading
Personal Weather Stations






























Interactive Weather Map
Tropical Storm Tracking
New forecast layout! Learn more

10-Day Weather Forecast

Advertisements
Track Severe Weather on mobile